Time;durP1;ratioP1;P1;durP2;ratioP2;P2;SDS_P1;SDS_P2;PMS_P1;PMS_P2;Temp;Humidity;BMP_temperature;BMP_pressure;BME280_temperature;BME280_humidity;BME280_pressure;Samples;Min_cycle;Max_cycle;Signal;HPM_P1;HPM_P2
2021/06/11 00:01:54;;;;;;;6.53;5.77;;;18.40;99.90;;;;;;5095217;28;20180;-58
2021/06/11 00:04:20;;;;;;;6.53;5.60;;;18.40;99.90;;;;;;5095167;28;20198;-59
2021/06/11 00:06:46;;;;;;;6.77;5.97;;;18.30;99.90;;;;;;5095304;28;20712;-58
2021/06/11 00:09:13;;;;;;;8.07;6.83;;;18.40;99.90;;;;;;5095677;28;20181;-54
2021/06/11 00:11:40;;;;;;;7.00;6.30;;;18.30;99.90;;;;;;5094733;28;20176;-58
2021/06/11 00:14:05;;;;;;;6.67;6.07;;;18.20;99.90;;;;;;5095290;28;20182;-57
2021/06/11 00:16:31;;;;;;;6.53;5.93;;;18.20;99.90;;;;;;5094967;28;20192;-58
2021/06/11 00:18:56;;;;;;;6.77;6.17;;;18.30;99.90;;;;;;5095301;28;20177;-55
2021/06/11 00:21:22;;;;;;;8.27;6.67;;;18.20;99.90;;;;;;5095042;28;20174;-58
2021/06/11 00:23:47;;;;;;;6.57;5.97;;;18.20;99.90;;;;;;5093999;28;20226;-59
2021/06/11 00:26:13;;;;;;;7.03;6.43;;;18.30;99.90;;;;;;5095186;28;20173;-57
2021/06/11 00:28:39;;;;;;;7.57;6.13;;;18.30;99.90;;;;;;5095045;28;20607;-57
2021/06/11 00:31:04;;;;;;;7.10;6.40;;;18.30;99.90;;;;;;5094556;28;20250;-55
2021/06/11 00:33:30;;;;;;;6.90;6.20;;;18.20;99.90;;;;;;5094883;28;20278;-55
2021/06/11 00:35:56;;;;;;;7.13;6.47;;;18.10;99.90;;;;;;5095267;28;20179;-56
2021/06/11 00:38:21;;;;;;;6.70;6.10;;;18.10;99.90;;;;;;5094500;28;20634;-56
2021/06/11 00:40:47;;;;;;;6.50;5.90;;;18.10;99.90;;;;;;5093911;28;20193;-57
2021/06/11 00:43:13;;;;;;;7.13;6.53;;;18.10;99.90;;;;;;5094556;28;20234;-57
2021/06/11 00:45:41;;;;;;;6.33;5.77;;;18.10;99.90;;;;;;5094791;28;20178;-56
2021/06/11 00:48:07;;;;;;;6.40;5.80;;;18.00;99.90;;;;;;5094696;28;20189;-58
2021/06/11 00:50:35;;;;;;;6.60;5.93;;;17.90;99.90;;;;;;5094960;28;20175;-59
2021/06/11 00:53:01;;;;;;;6.33;5.70;;;17.90;99.90;;;;;;5095005;28;20186;-59
2021/06/11 00:55:28;;;;;;;6.87;6.27;;;17.90;99.90;;;;;;5094844;28;20622;-59
2021/06/11 00:57:53;;;;;;;6.50;5.90;;;17.90;99.90;;;;;;5094127;28;20221;-55
2021/06/11 01:00:19;;;;;;;6.13;5.53;;;17.90;99.90;;;;;;5094187;28;20181;-56
2021/06/11 01:02:45;;;;;;;7.07;6.03;;;17.80;99.90;;;;;;5094248;28;20653;-57
2021/06/11 01:05:11;;;;;;;6.20;5.60;;;17.90;99.90;;;;;;5094618;28;20179;-57
2021/06/11 01:07:40;;;;;;;6.47;5.27;;;17.80;99.90;;;;;;5094068;28;20222;-58
2021/06/11 01:10:07;;;;;;;5.97;5.43;;;17.80;99.90;;;;;;5094059;28;20621;-56
2021/06/11 01:12:34;;;;;;;6.20;5.67;;;17.80;99.90;;;;;;5093914;28;20223;-54
2021/06/11 01:15:02;;;;;;;6.17;5.63;;;17.80;99.90;;;;;;5094379;28;20599;-54
2021/06/11 01:17:30;;;;;;;6.20;5.60;;;18.20;99.90;;;;;;5093875;28;20189;-57
2021/06/11 01:19:56;;;;;;;5.87;5.33;;;17.80;99.90;;;;;;5094702;28;20178;-56
2021/06/11 01:22:30;;;;;;;5.83;5.30;;;17.80;99.90;;;;;;5093552;28;20192;-58
2021/06/11 01:25:09;;;;;;;7.80;5.90;;;17.70;99.90;;;;;;5094138;28;20241;-59
2021/06/11 01:27:36;;;;;;;7.30;6.03;;;17.70;99.90;;;;;;5094407;28;20279;-57
2021/06/11 01:30:07;;;;;;;5.90;5.40;;;17.60;99.90;;;;;;5093972;28;20629;-58
2021/06/11 01:32:34;;;;;;;5.83;5.33;;;17.50;99.90;;;;;;5093766;28;20262;-58
2021/06/11 01:35:04;;;;;;;6.20;5.60;;;17.50;99.90;;;;;;5093409;28;20249;-58
2021/06/11 01:37:33;;;;;;;6.20;5.60;;;17.50;99.90;;;;;;5093595;28;20222;-52
2021/06/11 01:40:04;;;;;;;6.43;5.83;;;17.50;99.90;;;;;;5093904;28;20610;-57
2021/06/11 01:42:32;;;;;;;6.60;5.90;;;17.40;99.90;;;;;;5094179;28;20247;-55
2021/06/11 01:44:59;;;;;;;8.17;7.47;;;17.30;99.90;;;;;;5093891;28;20173;-54
2021/06/11 01:47:25;;;;;;;7.90;7.10;;;17.30;99.90;;;;;;5093914;28;20197;-59
2021/06/11 01:49:52;;;;;;;7.67;6.60;;;17.30;99.90;;;;;;5093887;28;20687;-59
2021/06/11 01:52:19;;;;;;;6.73;6.13;;;17.30;99.90;;;;;;5093814;28;20180;-54
2021/06/11 01:54:46;;;;;;;6.87;5.50;;;17.90;99.90;;;;;;5093757;28;20178;-52
2021/06/11 01:57:13;;;;;;;6.57;5.23;;;17.30;99.90;;;;;;5093926;28;20273;-57
2021/06/11 01:59:39;;;;;;;5.83;4.87;;;17.20;99.90;;;;;;5093369;28;20639;-55
2021/06/11 02:02:06;;;;;;;4.97;4.50;;;17.20;99.90;;;;;;5093539;28;20261;-56
2021/06/11 02:04:33;;;;;;;5.20;4.70;;;17.10;99.90;;;;;;5093403;28;20204;-57
2021/06/11 02:06:59;;;;;;;5.30;4.83;;;17.10;99.90;;;;;;5093632;28;20181;-59
2021/06/11 02:09:26;;;;;;;5.57;5.07;;;17.00;99.90;;;;;;5093813;28;20261;-55
2021/06/11 02:11:53;;;;;;;6.40;5.80;;;17.00;99.90;;;;;;5093239;28;20264;-54
2021/06/11 02:14:21;;;;;;;6.70;5.60;;;17.00;99.90;;;;;;5093403;28;20608;-58
2021/06/11 02:16:48;;;;;;;6.20;5.60;;;17.00;99.90;;;;;;5093555;28;20229;-56
2021/06/11 02:19:14;;;;;;;6.83;5.40;;;16.90;99.90;;;;;;5093612;28;20185;-54
2021/06/11 02:21:40;;;;;;;6.20;5.47;;;16.90;99.90;;;;;;5093189;28;20210;-59
2021/06/11 02:24:07;;;;;;;5.43;4.93;;;16.90;99.90;;;;;;5093116;28;20244;-56
2021/06/11 02:26:33;;;;;;;5.87;5.27;;;16.90;99.90;;;;;;5093858;28;20213;-58
2021/06/11 02:28:58;;;;;;;5.73;5.07;;;16.80;99.90;;;;;;5093477;28;20205;-56
2021/06/11 02:31:24;;;;;;;5.20;4.80;;;16.80;99.90;;;;;;5093129;28;20178;-54
2021/06/11 02:33:50;;;;;;;5.53;5.00;;;16.80;99.90;;;;;;5093399;28;20609;-58
2021/06/11 02:36:15;;;;;;;7.63;5.63;;;16.90;99.90;;;;;;5093257;28;20174;-59
2021/06/11 02:38:41;;;;;;;5.83;5.33;;;16.90;99.90;;;;;;5093308;28;20193;-57
2021/06/11 02:41:10;;;;;;;6.60;6.00;;;16.90;99.90;;;;;;5093430;28;20170;-58
2021/06/11 02:43:39;;;;;;;6.23;5.63;;;16.90;99.90;;;;;;5093010;28;20202;-54
2021/06/11 02:46:28;;;;;;;6.00;5.47;;;16.90;99.90;;;;;;5094648;28;20178;-58
2021/06/11 02:48:57;;;;;;;6.10;5.50;;;16.80;99.90;;;;;;5096255;28;20638;-54
2021/06/11 02:51:37;;;;;;;6.10;5.50;;;16.80;99.90;;;;;;5096384;28;20511;-55
2021/06/11 02:54:04;;;;;;;5.97;5.40;;;16.80;99.90;;;;;;5096689;28;20174;-54
2021/06/11 02:56:46;;;;;;;5.80;5.30;;;16.80;99.90;;;;;;5079166;28;20206;-59
2021/06/11 02:59:18;;;;;;;6.80;5.63;;;16.80;99.90;;;;;;5076567;28;20178;-55
2021/06/11 03:01:51;;;;;;;5.67;5.17;;;16.80;99.90;;;;;;5076249;28;20193;-57
2021/06/11 03:04:18;;;;;;;6.30;5.70;;;16.80;99.90;;;;;;5076495;28;20635;-56
2021/06/11 03:06:45;;;;;;;6.07;5.47;;;16.70;99.90;;;;;;5076867;28;20252;-59
2021/06/11 03:09:15;;;;;;;5.70;5.00;;;16.70;99.90;;;;;;5076071;28;20179;-58
2021/06/11 03:11:42;;;;;;;5.60;4.57;;;16.60;99.90;;;;;;5076308;28;20247;-57
2021/06/11 03:14:10;;;;;;;4.70;4.30;;;16.60;99.90;;;;;;5076538;28;20270;-59
2021/06/11 03:16:39;;;;;;;5.13;4.70;;;16.60;99.90;;;;;;5076270;28;20214;-56
2021/06/11 03:19:12;;;;;;;6.77;4.60;;;16.60;99.90;;;;;;5075953;28;20213;-57
2021/06/11 03:21:56;;;;;;;5.13;4.63;;;16.70;99.90;;;;;;5075787;28;20183;-57
2021/06/11 03:24:39;;;;;;;6.70;4.30;;;16.70;99.90;;;;;;5075965;28;20241;-57
2021/06/11 03:27:13;;;;;;;5.20;4.70;;;16.70;99.90;;;;;;5076215;28;20225;-58
2021/06/11 03:29:52;;;;;;;5.30;4.80;;;16.60;99.90;;;;;;5076660;28;20245;-58
2021/06/11 03:32:50;;;;;;;4.83;4.43;;;16.70;99.90;;;;;;5075560;28;20171;-59
2021/06/11 03:35:22;;;;;;;6.13;4.80;;;16.60;99.90;;;;;;5075815;28;20182;-58
2021/06/11 03:37:53;;;;;;;5.50;5.00;;;16.70;99.90;;;;;;5075367;28;20313;-57
2021/06/11 03:40:24;;;;;;;5.27;4.73;;;16.70;99.90;;;;;;5075974;28;20163;-57
2021/06/11 03:42:51;;;;;;;5.10;4.60;;;16.70;99.90;;;;;;5075524;28;20226;-56
2021/06/11 03:45:17;;;;;;;7.13;4.67;;;16.80;99.90;;;;;;5075771;28;20235;-58
2021/06/11 03:47:45;;;;;;;5.30;4.80;;;16.80;99.90;;;;;;5075457;28;20282;-59
2021/06/11 03:50:11;;;;;;;4.80;4.40;;;16.80;99.90;;;;;;5075958;28;20162;-54
2021/06/11 03:52:40;;;;;;;5.33;4.83;;;16.70;99.90;;;;;;5075780;28;20171;-53
2021/06/11 03:55:20;;;;;;;4.80;4.40;;;16.80;99.90;;;;;;5075397;28;20183;-58
2021/06/11 03:57:58;;;;;;;4.97;4.47;;;16.80;99.90;;;;;;5074065;28;20283;-55
2021/06/11 04:00:26;;;;;;;4.80;4.30;;;16.80;99.90;;;;;;5075220;28;20176;-59
2021/06/11 04:02:52;;;;;;;5.27;4.77;;;16.90;99.90;;;;;;5074792;28;20705;-57
2021/06/11 04:05:18;;;;;;;4.70;4.30;;;16.90;99.90;;;;;;5075302;28;20324;-58
2021/06/11 04:07:51;;;;;;;6.77;5.00;;;16.90;99.90;;;;;;5075561;28;20198;-54
2021/06/11 04:10:39;;;;;;;5.10;4.60;;;16.90;99.90;;;;;;5075091;28;20175;-56
2021/06/11 04:13:22;;;;;;;4.63;4.27;;;16.90;99.90;;;;;;5075154;28;20240;-58
2021/06/11 04:15:50;;;;;;;4.67;4.27;;;17.00;99.90;;;;;;5074546;28;20171;-59
2021/06/11 04:18:21;;;;;;;4.80;4.30;;;17.00;99.90;;;;;;5075007;28;20198;-56
2021/06/11 04:20:52;;;;;;;5.00;4.37;;;17.10;99.90;;;;;;5075113;28;20166;-56
2021/06/11 04:23:23;;;;;;;5.57;4.90;;;17.10;99.90;;;;;;5075108;28;20233;-56
2021/06/11 04:25:50;;;;;;;4.70;4.30;;;17.10;99.90;;;;;;5075015;28;20198;-56
2021/06/11 04:28:17;;;;;;;5.47;4.97;;;17.10;99.90;;;;;;5074747;28;20275;-57
2021/06/11 04:30:43;;;;;;;6.70;4.23;;;17.20;99.90;;;;;;5074572;28;20646;-56
2021/06/11 04:33:23;;;;;;;4.50;4.10;;;17.30;99.90;;;;;;5074613;28;20684;-54
2021/06/11 04:35:49;;;;;;;4.70;4.30;;;17.30;99.90;;;;;;5074424;28;20173;-54
2021/06/11 04:38:15;;;;;;;4.93;4.53;;;17.20;99.90;;;;;;5074185;28;20214;-57
2021/06/11 04:40:41;;;;;;;4.70;4.30;;;17.10;99.90;;;;;;5075103;28;20182;-58
2021/06/11 04:43:07;;;;;;;6.57;4.50;;;17.10;99.90;;;;;;5074169;28;20534;-57
2021/06/11 04:45:34;;;;;;;5.87;4.47;;;17.00;99.90;;;;;;5074183;28;20183;-57
2021/06/11 04:48:00;;;;;;;5.07;4.27;;;16.90;99.90;;;;;;5074169;28;20210;-58
2021/06/11 04:50:26;;;;;;;6.17;4.87;;;16.80;99.90;;;;;;5074126;28;20523;-57
2021/06/11 04:52:52;;;;;;;5.03;4.57;;;16.80;99.90;;;;;;5073937;28;20689;-59
2021/06/11 04:55:18;;;;;;;5.63;4.50;;;16.80;99.90;;;;;;5074114;28;20178;-58
2021/06/11 04:57:43;;;;;;;5.17;4.67;;;16.70;99.90;;;;;;5073883;28;20320;-54
2021/06/11 05:00:09;;;;;;;5.37;4.60;;;16.90;99.90;;;;;;5073397;28;20182;-57
2021/06/11 05:02:35;;;;;;;6.10;4.90;;;17.00;99.90;;;;;;5074075;28;20585;-54
2021/06/11 05:05:01;;;;;;;4.87;4.47;;;17.10;99.90;;;;;;5073100;28;20769;-54
2021/06/11 05:07:26;;;;;;;6.33;5.10;;;17.10;99.90;;;;;;5074044;28;20194;-59
2021/06/11 05:09:52;;;;;;;5.53;5.00;;;17.10;99.90;;;;;;5073551;28;20179;-58
2021/06/11 05:12:18;;;;;;;5.40;4.90;;;17.10;99.90;;;;;;5079983;28;20187;-58
2021/06/11 05:14:44;;;;;;;5.13;4.60;;;17.10;99.90;;;;;;5093602;28;20175;-59
2021/06/11 05:17:10;;;;;;;5.50;5.00;;;17.20;99.90;;;;;;5093737;28;20206;-57
2021/06/11 05:19:35;;;;;;;5.17;4.77;;;17.30;99.90;;;;;;5094078;28;20232;-58
2021/06/11 05:22:01;;;;;;;5.97;5.47;;;17.30;99.90;;;;;;5094021;28;20531;-57
2021/06/11 05:24:27;;;;;;;6.43;5.30;;;17.30;99.90;;;;;;5093885;28;20225;-57
2021/06/11 05:26:52;;;;;;;6.97;6.37;;;17.30;99.90;;;;;;5094257;28;20201;-58
2021/06/11 05:29:18;;;;;;;6.70;6.10;;;17.30;99.90;;;;;;5093308;28;20224;-59
2021/06/11 05:31:44;;;;;;;6.50;5.90;;;17.30;99.90;;;;;;5083340;28;20176;-50
2021/06/11 05:34:10;;;;;;;6.43;5.83;;;17.20;99.90;;;;;;5090739;28;20189;-58
2021/06/11 05:36:36;;;;;;;8.20;6.33;;;17.30;99.90;;;;;;5091542;28;20233;-50
2021/06/11 05:39:01;;;;;;;6.90;6.20;;;17.30;99.90;;;;;;5092916;28;20198;-50
2021/06/11 05:41:27;;;;;;;6.57;5.97;;;17.40;99.90;;;;;;5093407;28;20198;-58
2021/06/11 05:43:53;;;;;;;6.80;6.20;;;17.50;99.90;;;;;;5091145;28;20253;-59
2021/06/11 05:46:19;;;;;;;7.23;6.53;;;17.50;99.90;;;;;;5093176;28;20681;-54
2021/06/11 05:48:46;;;;;;;7.30;6.70;;;17.60;99.90;;;;;;5093365;28;20173;-50
2021/06/11 05:51:11;;;;;;;6.90;6.30;;;17.60;99.90;;;;;;5092789;28;20246;-55
2021/06/11 05:53:37;;;;;;;7.10;6.40;;;17.70;99.90;;;;;;5093088;28;20183;-55
2021/06/11 05:56:04;;;;;;;6.47;5.87;;;17.90;99.90;;;;;;5093624;28;20648;-52
2021/06/11 05:58:30;;;;;;;7.00;6.40;;;18.00;99.90;;;;;;5092122;28;20209;-57
2021/06/11 06:00:55;;;;;;;6.93;6.20;;;18.30;99.90;;;;;;5092441;28;20166;-52
2021/06/11 06:03:21;;;;;;;7.03;6.33;;;18.40;99.90;;;;;;5093201;28;20568;-54
2021/06/11 06:05:47;;;;;;;7.33;6.20;;;18.60;99.90;;;;;;5092827;28;20231;-58
2021/06/11 06:08:12;;;;;;;6.50;5.90;;;18.60;99.90;;;;;;5093200;28;20186;-61
2021/06/11 06:10:38;;;;;;;6.70;6.10;;;18.70;99.90;;;;;;5092688;28;20180;-56
2021/06/11 06:13:03;;;;;;;6.67;5.90;;;18.70;99.90;;;;;;5091799;28;20878;-56
2021/06/11 06:15:29;;;;;;;6.30;5.70;;;18.60;99.90;;;;;;5092797;28;20158;-55
2021/06/11 06:17:54;;;;;;;6.80;6.20;;;18.60;99.90;;;;;;5091157;28;20186;-58
2021/06/11 06:20:20;;;;;;;6.90;6.20;;;18.60;99.90;;;;;;5089355;28;20174;-59
2021/06/11 06:22:46;;;;;;;7.60;6.90;;;18.80;99.90;;;;;;5094428;28;20209;-57
2021/06/11 06:25:13;;;;;;;6.60;6.00;;;18.80;99.90;;;;;;5095313;28;20177;-55
2021/06/11 06:27:40;;;;;;;8.23;7.43;;;19.00;99.90;;;;;;5094846;28;20182;-57
2021/06/11 06:30:08;;;;;;;9.63;7.90;;;19.00;99.90;;;;;;5095540;28;20174;-57
2021/06/11 06:32:34;;;;;;;7.73;6.93;;;19.10;99.90;;;;;;5096540;28;20178;-54
2021/06/11 06:35:00;;;;;;;7.43;6.73;;;19.10;99.90;;;;;;5097289;28;20180;-53
2021/06/11 06:37:27;;;;;;;7.23;6.53;;;19.20;99.90;;;;;;5097193;28;20201;-56
2021/06/11 06:39:53;;;;;;;7.50;6.23;;;19.30;99.90;;;;;;5097307;28;20178;-57
2021/06/11 06:42:19;;;;;;;8.17;7.47;;;19.50;99.90;;;;;;5097488;28;20231;-61
2021/06/11 06:44:45;;;;;;;7.03;6.40;;;19.60;99.90;;;;;;5097207;28;20255;-59
2021/06/11 06:47:11;;;;;;;8.10;7.40;;;19.30;99.90;;;;;;5096840;28;20239;-55
2021/06/11 06:49:37;;;;;;;7.83;7.13;;;19.30;99.90;;;;;;5097453;28;20622;-50
2021/06/11 06:52:03;;;;;;;7.13;6.53;;;19.40;99.90;;;;;;5096832;28;20178;-55
2021/06/11 06:54:29;;;;;;;7.57;6.87;;;19.30;99.90;;;;;;5096794;28;20178;-58
2021/06/11 06:56:54;;;;;;;7.53;6.83;;;19.30;99.90;;;;;;5096929;28;20200;-56
2021/06/11 06:59:21;;;;;;;7.80;7.10;;;19.20;99.90;;;;;;5096663;28;20197;-55
2021/06/11 07:01:48;;;;;;;8.50;7.40;;;19.30;99.90;;;;;;5096753;28;20182;-59
2021/06/11 07:04:13;;;;;;;9.53;6.90;;;19.20;99.90;;;;;;5097185;28;20247;-56
2021/06/11 07:06:39;;;;;;;7.37;6.77;;;19.20;99.90;;;;;;5096740;28;20190;-54
2021/06/11 07:09:07;;;;;;;8.13;7.43;;;19.10;99.90;;;;;;5096768;28;20171;-52
2021/06/11 07:11:32;;;;;;;7.60;6.90;;;19.10;99.90;;;;;;5095783;28;20174;-55
2021/06/11 07:13:58;;;;;;;8.43;7.50;;;19.00;99.90;;;;;;5096598;28;20545;-60
2021/06/11 07:16:23;;;;;;;7.50;6.70;;;19.00;99.90;;;;;;5094760;28;20202;-59
2021/06/11 07:18:49;;;;;;;8.07;7.10;;;19.00;99.90;;;;;;5096210;28;20174;-59
2021/06/11 07:21:15;;;;;;;8.07;7.27;;;19.10;99.90;;;;;;5094908;28;20174;-58
2021/06/11 07:23:41;;;;;;;7.73;7.03;;;19.10;99.90;;;;;;5096151;28;20288;-53
2021/06/11 07:26:07;;;;;;;7.40;6.70;;;19.00;99.90;;;;;;5096558;28;20174;-55
2021/06/11 07:28:37;;;;;;;8.07;7.23;;;19.00;99.90;;;;;;5087266;28;20183;-61
2021/06/11 07:31:06;;;;;;;7.97;7.27;;;19.00;99.90;;;;;;5075714;28;20181;-56
2021/06/11 07:33:32;;;;;;;8.20;7.50;;;19.20;99.90;;;;;;5075494;28;20178;-54
2021/06/11 07:35:58;;;;;;;6.80;6.20;;;19.30;99.90;;;;;;5075689;28;20266;-59
2021/06/11 07:38:25;;;;;;;7.97;7.17;;;19.50;99.90;;;;;;5075586;28;20558;-52
2021/06/11 07:40:53;;;;;;;7.70;6.83;;;19.50;99.90;;;;;;5075698;28;20194;-52
2021/06/11 07:43:22;;;;;;;7.10;6.50;;;19.40;99.90;;;;;;5075936;28;20217;-60
2021/06/11 07:45:48;;;;;;;7.77;7.07;;;19.40;99.90;;;;;;5075698;28;20178;-59
2021/06/11 07:48:14;;;;;;;8.77;6.93;;;19.50;99.90;;;;;;5075627;28;20674;-53
2021/06/11 07:50:41;;;;;;;7.43;6.80;;;19.70;99.90;;;;;;5075669;28;20258;-54
2021/06/11 07:53:06;;;;;;;7.13;6.43;;;19.80;99.90;;;;;;5075351;28;20189;-55
2021/06/11 07:55:32;;;;;;;6.70;6.10;;;20.00;99.90;;;;;;5075407;28;20665;-58
2021/06/11 07:57:59;;;;;;;6.87;6.27;;;20.20;99.90;;;;;;5075791;28;20190;-56
2021/06/11 08:00:25;;;;;;;6.80;6.10;;;20.30;99.90;;;;;;5075045;28;20681;-58
2021/06/11 08:02:58;;;;;;;6.47;5.87;;;20.40;99.90;;;;;;5075033;28;20195;-52
2021/06/11 08:05:24;;;;;;;6.07;5.57;;;20.60;99.90;;;;;;5075212;28;20644;-51
2021/06/11 08:07:50;;;;;;;6.30;5.70;;;20.60;99.90;;;;;;5075007;28;20650;-56
2021/06/11 08:10:16;;;;;;;6.43;5.43;;;20.80;99.90;;;;;;5075185;28;20224;-59
2021/06/11 08:12:41;;;;;;;5.78;5.28;;;21.00;99.90;;;;;;5074888;28;20227;-51
2021/06/11 08:15:07;;;;;;;6.93;5.75;;;21.30;99.90;;;;;;5075101;28;20168;-52
2021/06/11 08:17:33;;;;;;;6.88;6.28;;;21.50;99.90;;;;;;5075017;28;20193;-55
2021/06/11 08:19:59;;;;;;;6.32;5.82;;;21.60;99.90;;;;;;5074919;28;20176;-56
2021/06/11 08:22:25;;;;;;;5.97;5.47;;;21.50;99.90;;;;;;5073667;28;20220;-55
2021/06/11 08:24:50;;;;;;;6.00;5.15;;;21.60;99.90;;;;;;5074689;28;20192;-61
2021/06/11 08:27:16;;;;;;;5.25;4.75;;;21.80;99.90;;;;;;5074880;28;20194;-56
2021/06/11 08:29:42;;;;;;;5.57;5.07;;;22.00;99.90;;;;;;5074537;28;20202;-51
2021/06/11 08:32:07;;;;;;;6.15;4.80;;;22.20;99.90;;;;;;5074614;28;20653;-55
2021/06/11 08:34:36;;;;;;;6.68;5.43;;;22.50;99.90;;;;;;5075105;28;20249;-56
2021/06/11 08:37:04;;;;;;;5.22;4.82;;;22.60;99.90;;;;;;5074633;28;20199;-53
2021/06/11 08:39:29;;;;;;;6.63;6.03;;;22.80;99.90;;;;;;5075667;28;20189;-59
2021/06/11 08:41:57;;;;;;;6.75;5.55;;;22.90;99.90;;;;;;5090415;28;20515;-61
2021/06/11 08:44:26;;;;;;;5.18;4.78;;;23.10;99.90;;;;;;5093479;28;20642;-62
2021/06/11 08:46:52;;;;;;;5.57;5.07;;;23.40;99.90;;;;;;5087183;28;20662;-53
2021/06/11 08:49:17;;;;;;;5.05;4.65;;;23.50;99.90;;;;;;5091473;28;20223;-56
2021/06/11 08:51:45;;;;;;;5.15;4.60;;;23.40;99.90;;;;;;5094055;28;20237;-53
2021/06/11 08:54:10;;;;;;;5.18;4.78;;;23.60;99.90;;;;;;5094598;28;20188;-54
2021/06/11 08:56:36;;;;;;;4.80;4.30;;;23.50;99.90;;;;;;5094851;28;20190;-57
2021/06/11 08:59:01;;;;;;;5.53;5.00;;;23.50;99.90;;;;;;5094349;28;20186;-58
2021/06/11 09:01:28;;;;;;;5.25;4.85;;;23.50;99.90;;;;;;5094262;28;20219;-60
2021/06/11 09:03:53;;;;;;;5.95;5.40;;;23.70;99.90;;;;;;5094403;28;20193;-57
2021/06/11 09:06:19;;;;;;;5.95;5.45;;;23.80;99.90;;;;;;5094383;28;20199;-59
2021/06/11 09:08:54;;;;;;;5.07;4.63;;;23.70;99.90;;;;;;5094616;28;20174;-54
2021/06/11 09:11:25;;;;;;;5.72;5.22;;;23.50;99.90;;;;;;5094209;28;20180;-58
2021/06/11 09:13:59;;;;;;;5.97;5.32;;;23.50;99.90;;;;;;5094481;28;20154;-58
2021/06/11 09:16:26;;;;;;;6.75;5.97;;;23.70;99.90;;;;;;5094559;28;20208;-58
2021/06/11 09:18:57;;;;;;;6.50;5.90;;;23.80;99.90;;;;;;5094234;28;20170;-60
2021/06/11 09:21:31;;;;;;;17.00;6.15;;;23.90;99.90;;;;;;5093938;28;20227;-62
2021/06/11 09:26:57;;;;;;;8.30;6.72;;;23.80;99.90;;;;;;5093920;28;20217;-56
2021/06/11 09:29:28;;;;;;;7.78;6.88;;;23.90;99.90;;;;;;5094066;28;20166;-61
2021/06/11 09:32:19;;;;;;;7.50;6.53;;;23.70;99.90;;;;;;5093779;28;20174;-57
2021/06/11 09:34:47;;;;;;;7.00;6.30;;;23.80;99.90;;;;;;5094173;28;20182;-62
2021/06/11 09:37:17;;;;;;;7.10;5.93;;;23.90;99.90;;;;;;5093570;28;20213;-60
2021/06/11 09:39:47;;;;;;;7.35;6.75;;;23.90;99.90;;;;;;5086303;28;20255;-57
2021/06/11 09:42:15;;;;;;;7.43;6.82;;;24.10;99.90;;;;;;5085235;28;20189;-61
2021/06/11 09:44:48;;;;;;;6.88;6.22;;;24.00;99.90;;;;;;5088550;28;20197;-61
2021/06/11 09:47:44;;;;;;;7.57;6.72;;;23.80;99.90;;;;;;5091726;28;20296;-61
2021/06/11 09:50:13;;;;;;;7.85;7.05;;;23.70;99.90;;;;;;5091443;28;20170;-60
2021/06/11 09:53:07;;;;;;;7.38;6.57;;;23.70;99.90;;;;;;5091311;28;20181;-61
2021/06/11 09:55:36;;;;;;;6.72;6.13;;;23.70;99.90;;;;;;5095295;28;20205;-60
2021/06/11 09:58:02;;;;;;;7.15;6.28;;;23.80;99.90;;;;;;5097877;28;20247;-59
2021/06/11 10:00:33;;;;;;;5.93;5.40;;;23.80;99.90;;;;;;5098103;28;20169;-60
2021/06/11 10:02:59;;;;;;;5.63;4.60;;;23.90;99.90;;;;;;5077469;28;20190;-60
2021/06/11 10:05:28;;;;;;;5.78;4.57;;;24.00;99.90;;;;;;5077060;28;20541;-59
2021/06/11 10:07:55;;;;;;;5.32;4.78;;;24.10;99.90;;;;;;5077519;28;20201;-61
2021/06/11 10:10:21;;;;;;;4.82;4.32;;;24.10;99.90;;;;;;5077411;28;20171;-61
2021/06/11 10:12:48;;;;;;;4.88;4.47;;;24.20;99.90;;;;;;5076867;28;20177;-58
2021/06/11 10:15:15;;;;;;;5.35;4.82;;;24.40;99.90;;;;;;5077006;28;20262;-59
2021/06/11 10:17:44;;;;;;;4.80;4.40;;;24.60;99.90;;;;;;5077317;28;20191;-61
2021/06/11 10:20:14;;;;;;;9.13;4.50;;;24.70;99.90;;;;;;5076796;28;20182;-59
2021/06/11 10:22:40;;;;;;;4.68;3.85;;;24.80;99.90;;;;;;5075702;28;20190;-59
2021/06/11 10:25:08;;;;;;;4.63;4.28;;;24.70;99.90;;;;;;5076912;28;20211;-61
2021/06/11 10:27:36;;;;;;;6.68;5.15;;;24.60;99.90;;;;;;5086034;28;20662;-61
2021/06/11 10:30:03;;;;;;;8.73;4.50;;;24.50;99.90;;;;;;5096555;28;20178;-60
2021/06/11 10:32:29;;;;;;;4.30;3.90;;;24.50;99.90;;;;;;5096471;28;20180;-61
2021/06/11 10:34:56;;;;;;;4.22;3.92;;;24.40;99.90;;;;;;5096770;28;20260;-60
2021/06/11 10:37:42;;;;;;;4.45;4.13;;;24.40;99.90;;;;;;5094078;28;20707;-58
2021/06/11 10:40:15;;;;;;;5.15;4.65;;;24.50;99.90;;;;;;5096768;28;20181;-58
2021/06/11 10:42:41;;;;;;;4.57;4.18;;;24.40;99.90;;;;;;5094591;28;20256;-61
2021/06/11 10:45:08;;;;;;;5.10;4.25;;;24.30;99.90;;;;;;5096860;28;20641;-59
2021/06/11 10:47:34;;;;;;;4.40;4.00;;;24.40;99.90;;;;;;5096343;28;20194;-60
2021/06/11 10:50:02;;;;;;;4.28;3.97;;;24.50;99.90;;;;;;5097339;28;20162;-60
2021/06/11 10:52:53;;;;;;;5.30;4.20;;;24.60;99.90;;;;;;5096259;28;20715;-59
2021/06/11 10:55:43;;;;;;;5.03;4.55;;;24.60;99.90;;;;;;5094574;28;20258;-59
2021/06/11 10:58:09;;;;;;;4.75;4.35;;;24.60;99.90;;;;;;5096664;28;20190;-58
2021/06/11 11:00:39;;;;;;;4.70;4.30;;;24.50;99.90;;;;;;5096397;28;20230;-59
2021/06/11 11:03:07;;;;;;;4.00;3.70;;;24.30;99.90;;;;;;5095451;28;20278;-57
2021/06/11 11:05:32;;;;;;;5.18;3.65;;;24.40;99.90;;;;;;5097177;28;20227;-59
2021/06/11 11:08:00;;;;;;;5.80;4.25;;;24.40;99.90;;;;;;5095809;28;20194;-61
2021/06/11 11:10:39;;;;;;;4.20;3.80;;;24.50;99.90;;;;;;5096426;28;20204;-59
2021/06/11 11:13:12;;;;;;;4.10;3.80;;;24.70;99.90;;;;;;5096343;28;20575;-61
2021/06/11 11:15:57;;;;;;;4.43;3.80;;;25.00;99.90;;;;;;5096905;28;20162;-57
2021/06/11 11:18:31;;;;;;;4.97;4.43;;;25.00;99.90;;;;;;5096503;28;20196;-59
2021/06/11 11:20:58;;;;;;;4.32;3.92;;;25.00;99.90;;;;;;5095945;28;20534;-61
2021/06/11 11:23:26;;;;;;;5.75;4.00;;;25.10;99.90;;;;;;5096219;28;20190;-58
2021/06/11 11:25:52;;;;;;;4.13;3.83;;;25.20;99.90;;;;;;5096413;28;20286;-61
2021/06/11 11:28:18;;;;;;;4.75;3.60;;;25.30;99.90;;;;;;5096024;28;20193;-61
2021/06/11 11:30:46;;;;;;;6.75;3.72;;;25.40;99.90;;;;;;5095839;28;20239;-60
2021/06/11 11:33:13;;;;;;;4.22;3.47;;;25.50;99.90;;;;;;5096041;28;20629;-59
2021/06/11 11:35:41;;;;;;;3.63;3.33;;;25.50;99.90;;;;;;5096170;28;20188;-60
2021/06/11 11:38:08;;;;;;;3.92;2.97;;;25.40;99.90;;;;;;5095648;28;20218;-61
2021/06/11 11:40:35;;;;;;;3.30;3.00;;;25.10;99.90;;;;;;5096274;28;20193;-61
2021/06/11 11:43:01;;;;;;;3.45;3.15;;;25.20;99.90;;;;;;5095867;28;20239;-61
2021/06/11 11:45:28;;;;;;;3.45;3.17;;;25.20;99.90;;;;;;5095555;28;20633;-61
2021/06/11 11:47:56;;;;;;;4.32;3.60;;;25.50;99.90;;;;;;5095912;28;20232;-58
2021/06/11 11:50:22;;;;;;;4.93;3.35;;;25.50;99.90;;;;;;5096052;28;20302;-60
2021/06/11 11:52:48;;;;;;;5.75;3.50;;;25.60;99.90;;;;;;5095646;28;20170;-57
2021/06/11 11:55:14;;;;;;;3.97;3.67;;;25.40;99.90;;;;;;5095784;28;20188;-59
2021/06/11 11:57:42;;;;;;;3.78;3.47;;;25.30;99.90;;;;;;5095625;28;20561;-57
2021/06/11 12:00:11;;;;;;;4.50;3.90;;;25.50;99.90;;;;;;5095036;28;20170;-56
2021/06/11 12:02:37;;;;;;;4.05;3.75;;;25.70;99.90;;;;;;5078642;28;20252;-58
2021/06/11 12:05:05;;;;;;;3.75;3.45;;;25.80;99.90;;;;;;5075112;28;20566;-58
2021/06/11 12:07:30;;;;;;;4.05;3.22;;;25.80;99.90;;;;;;5074929;28;20200;-58
2021/06/11 12:09:56;;;;;;;3.63;3.42;;;25.80;99.90;;;;;;5074894;28;20178;-57
2021/06/11 12:12:22;;;;;;;3.60;3.30;;;25.80;99.90;;;;;;5074762;28;20662;-59
2021/06/11 12:14:48;;;;;;;3.33;3.10;;;26.00;99.90;;;;;;5074668;28;20253;-61
2021/06/11 12:17:13;;;;;;;3.80;3.50;;;26.10;99.90;;;;;;5074749;28;20193;-61
2021/06/11 12:19:39;;;;;;;3.42;3.13;;;26.20;99.90;;;;;;5074162;28;20222;-61
2021/06/11 12:22:05;;;;;;;3.90;3.10;;;26.20;99.90;;;;;;5074590;28;20167;-58
2021/06/11 12:24:31;;;;;;;3.33;3.13;;;26.40;99.90;;;;;;5074909;28;20213;-60
2021/06/11 12:26:57;;;;;;;3.45;3.15;;;26.60;99.90;;;;;;5072515;28;20198;-60
2021/06/11 12:29:23;;;;;;;4.13;3.50;;;27.10;99.90;;;;;;5074586;28;20221;-60
2021/06/11 12:31:51;;;;;;;3.83;3.13;;;27.40;99.90;;;;;;5074439;28;20258;-61
2021/06/11 12:34:17;;;;;;;3.55;3.30;;;27.30;99.90;;;;;;5073674;28;20182;-60
2021/06/11 12:36:44;;;;;;;3.53;3.22;;;27.30;99.90;;;;;;5074457;28;20194;-60
2021/06/11 12:39:17;;;;;;;3.33;3.13;;;27.10;99.90;;;;;;5110522;27;20769;-58
2021/06/11 12:41:43;;;;;;;3.55;3.25;;;27.00;99.90;;;;;;5111496;28;20181;-59
2021/06/11 12:44:16;;;;;;;3.42;3.13;;;26.90;99.90;;;;;;5110418;28;20193;-57
2021/06/11 12:46:51;;;;;;;4.03;3.20;;;26.90;99.90;;;;;;5106828;28;20268;-58
2021/06/11 12:49:20;;;;;;;3.58;3.35;;;26.80;99.90;;;;;;5089826;28;20161;-59
2021/06/11 12:51:46;;;;;;;3.63;3.33;;;26.90;99.90;;;;;;5090997;28;20642;-59
2021/06/11 12:54:12;;;;;;;2.80;2.65;;;26.80;99.90;;;;;;5090834;28;20170;-60
2021/06/11 12:56:39;;;;;;;3.28;3.00;;;26.70;99.90;;;;;;5090807;28;20205;-57